Jolly Acres, South Dakota
Current Conditions -  °F | °C
As of 3:52 PM on Wednesday 22 Oct 2014 (Local Time) from KRAP Reporting Station
Clear Clear  
Wind Chill: 64°   Ceiling: Unl
Heat Index: 64°   Visibility: 10mi
Dew Point: 35°   Wind: 7mph
Humidity: 34%   Direction: 150°SSE
Pressure: 29.99"   Gusts: NA
Location:  44.0731°N, 103.205°W
Report Text: KRAP 222152Z 15006KT 10SM CLR 18/02 A2999 RMK AO2 SLP141 T01780017
Loading
Personal Weather Stations






























Interactive Weather Map New forecast layout! Learn more

10-Day Weather Forecast

Advertisements
Track Severe Weather on mobile